Time;durP1;ratioP1;P1;durP2;ratioP2;P2;SDS_P1;SDS_P2;PMS_P1;PMS_P2;Temp;Humidity;BMP_temperature;BMP_pressure;BME280_temperature;BME280_humidity;BME280_pressure;Samples;Min_cycle;Max_cycle;Signal;HPM_P1;HPM_P2
2021/10/13 00:04:37;;;;;;;0.10;0.10;;;;;;;;;;10441252;28;20498;-69
2021/10/13 00:09:40;;;;;;;0.15;0.15;;;;;;;;;;10443670;28;20118;-68
2021/10/13 00:14:45;;;;;;;0.17;0.17;;;;;;;;;;10444681;28;20493;-68
2021/10/13 00:19:49;;;;;;;0.20;0.20;;;;;;;;;;10443055;28;20063;-68
2021/10/13 00:24:51;;;;;;;0.20;0.20;;;;;;;;;;10444524;28;20044;-68
2021/10/13 00:30:05;;;;;;;0.10;0.10;;;;;;;;;;10445022;28;20139;-68
2021/10/13 00:35:11;;;;;;;0.10;0.10;;;;;;;;;;10442963;28;20045;-69
2021/10/13 00:40:14;;;;;;;0.20;0.20;;;;;;;;;;10444261;28;20041;-68
2021/10/13 00:45:18;;;;;;;0.10;0.10;;;;;;;;;;10442264;28;20041;-68
2021/10/13 00:50:31;;;;;;;0.10;0.10;;;;;;;;;;10443550;28;20418;-68
2021/10/13 00:55:33;;;;;;;0.13;0.13;;;;;;;;;;10439520;28;20052;-69
2021/10/13 01:00:42;;;;;;;0.10;0.10;;;;;;;;;;10440079;28;20079;-68
2021/10/13 01:06:00;;;;;;;0.20;0.10;;;;;;;;;;10443211;28;20053;-68
2021/10/13 01:11:23;;;;;;;0.10;0.10;;;;;;;;;;10442690;28;20047;-68
2021/10/13 01:16:31;;;;;;;0.10;0.10;;;;;;;;;;10443815;28;20052;-69
2021/10/13 01:21:43;;;;;;;0.15;0.15;;;;;;;;;;10442945;28;20049;-68
2021/10/13 01:26:53;;;;;;;0.10;0.10;;;;;;;;;;10444673;28;20043;-68
2021/10/13 01:31:59;;;;;;;0.17;0.17;;;;;;;;;;10449909;28;20383;-68
2021/10/13 01:37:06;;;;;;;0.10;0.10;;;;;;;;;;10448362;28;20067;-68
2021/10/13 01:42:11;;;;;;;0.10;0.10;;;;;;;;;;10449202;28;20060;-68
2021/10/13 01:47:18;;;;;;;0.10;0.10;;;;;;;;;;10449526;28;20045;-68
2021/10/13 01:52:21;;;;;;;0.10;0.10;;;;;;;;;;10450085;28;20041;-68
2021/10/13 01:57:24;;;;;;;0.10;0.10;;;;;;;;;;10446959;28;20670;-68
2021/10/13 02:02:29;;;;;;;0.20;0.20;;;;;;;;;;10451282;28;20119;-68
2021/10/13 02:07:34;;;;;;;0.10;0.10;;;;;;;;;;10447445;28;20411;-68
2021/10/13 02:12:38;;;;;;;0.20;0.20;;;;;;;;;;10450860;28;20045;-68
2021/10/13 02:17:44;;;;;;;0.10;0.10;;;;;;;;;;10449226;28;20055;-67
2021/10/13 02:22:49;;;;;;;0.17;0.17;;;;;;;;;;10449077;28;20518;-68
2021/10/13 02:27:57;;;;;;;0.10;0.10;;;;;;;;;;10449669;28;20459;-68
2021/10/13 02:33:01;;;;;;;0.20;0.20;;;;;;;;;;10449915;28;20399;-68
2021/10/13 02:38:04;;;;;;;0.32;0.17;;;;;;;;;;10446408;28;20051;-68
2021/10/13 02:43:09;;;;;;;0.10;0.10;;;;;;;;;;10445103;28;20521;-68
2021/10/13 02:48:17;;;;;;;0.10;0.10;;;;;;;;;;10446565;28;20044;-68
2021/10/13 02:53:22;;;;;;;0.20;0.20;;;;;;;;;;10445722;28;20056;-68
2021/10/13 02:58:29;;;;;;;0.10;0.10;;;;;;;;;;10449050;28;20110;-68
2021/10/13 03:03:39;;;;;;;0.10;0.10;;;;;;;;;;10446824;28;20462;-68
2021/10/13 03:08:46;;;;;;;0.82;0.10;;;;;;;;;;10444764;28;20045;-68
2021/10/13 03:13:52;;;;;;;0.32;0.20;;;;;;;;;;10448321;28;20040;-67
2021/10/13 03:18:58;;;;;;;0.20;0.20;;;;;;;;;;10433553;28;20053;-67
2021/10/13 03:24:01;;;;;;;0.15;0.15;;;;;;;;;;10437461;28;20063;-67
2021/10/13 03:29:07;;;;;;;0.10;0.10;;;;;;;;;;10437601;28;20059;-68
2021/10/13 03:34:14;;;;;;;0.20;0.20;;;;;;;;;;10436400;28;20369;-68
2021/10/13 03:39:19;;;;;;;0.10;0.10;;;;;;;;;;10436456;28;20490;-68
2021/10/13 03:44:23;;;;;;;0.10;0.10;;;;;;;;;;10437695;28;20103;-70
2021/10/13 03:49:28;;;;;;;0.10;0.10;;;;;;;;;;10448646;28;20072;-68
2021/10/13 03:54:31;;;;;;;0.10;0.10;;;;;;;;;;10438984;28;20037;-68
2021/10/13 03:59:36;;;;;;;0.20;0.20;;;;;;;;;;10434321;28;20064;-68
2021/10/13 04:04:59;;;;;;;0.10;0.10;;;;;;;;;;10444571;28;20041;-68
2021/10/13 04:10:05;;;;;;;0.20;0.20;;;;;;;;;;10458509;28;20617;-66
2021/10/13 04:15:10;;;;;;;0.20;0.20;;;;;;;;;;10447608;28;20526;-68
2021/10/13 04:20:13;;;;;;;0.20;0.20;;;;;;;;;;10432506;28;20132;-68
2021/10/13 04:25:18;;;;;;;0.10;0.10;;;;;;;;;;10433188;28;20127;-68
2021/10/13 04:30:21;;;;;;;0.13;0.13;;;;;;;;;;10433604;28;20045;-68
2021/10/13 04:35:24;;;;;;;0.20;0.20;;;;;;;;;;10433078;28;20049;-68
2021/10/13 04:40:28;;;;;;;0.28;0.28;;;;;;;;;;10433219;28;20057;-68
2021/10/13 04:45:31;;;;;;;0.10;0.10;;;;;;;;;;10433081;28;20039;-68
2021/10/13 04:50:33;;;;;;;0.15;0.15;;;;;;;;;;10432213;28;20071;-68
2021/10/13 04:55:38;;;;;;;0.47;0.20;;;;;;;;;;10435262;28;20523;-68
2021/10/13 05:00:41;;;;;;;0.20;0.20;;;;;;;;;;10434908;28;20065;-68
2021/10/13 05:05:44;;;;;;;0.20;0.20;;;;;;;;;;10439507;28;20048;-68
2021/10/13 05:10:48;;;;;;;0.17;0.17;;;;;;;;;;10438418;28;20067;-68
2021/10/13 05:15:54;;;;;;;0.15;0.15;;;;;;;;;;10443000;28;20037;-68
2021/10/13 05:20:57;;;;;;;0.15;0.15;;;;;;;;;;10440073;28;20048;-68
2021/10/13 05:26:01;;;;;;;0.20;0.20;;;;;;;;;;10441537;28;20041;-69
2021/10/13 05:31:04;;;;;;;0.10;0.10;;;;;;;;;;10439712;28;20055;-68
2021/10/13 05:36:07;;;;;;;0.20;0.20;;;;;;;;;;10440447;28;20435;-68
2021/10/13 05:41:30;;;;;;;0.20;0.20;;;;;;;;;;10440345;28;20048;-71
2021/10/13 05:46:33;;;;;;;0.32;0.20;;;;;;;;;;10438586;28;20064;-71
2021/10/13 05:51:36;;;;;;;0.20;0.20;;;;;;;;;;10438535;28;20826;-70
2021/10/13 05:56:40;;;;;;;0.10;0.10;;;;;;;;;;10438462;28;20056;-71
2021/10/13 06:01:44;;;;;;;0.10;0.10;;;;;;;;;;10451224;28;20657;-69
2021/10/13 06:06:47;;;;;;;0.13;0.13;;;;;;;;;;10436200;28;20037;-70
2021/10/13 06:11:51;;;;;;;0.20;0.20;;;;;;;;;;10437300;28;20135;-70
2021/10/13 06:16:54;;;;;;;0.20;0.20;;;;;;;;;;10438024;28;20049;-69
2021/10/13 06:21:56;;;;;;;0.20;0.20;;;;;;;;;;10437844;28;20065;-70
2021/10/13 06:27:00;;;;;;;0.20;0.20;;;;;;;;;;10438921;28;20652;-70
2021/10/13 06:32:03;;;;;;;0.20;0.20;;;;;;;;;;10438074;28;20047;-68
2021/10/13 06:37:06;;;;;;;0.10;0.10;;;;;;;;;;10437695;28;20487;-68
2021/10/13 06:42:10;;;;;;;0.10;0.10;;;;;;;;;;10438491;28;20758;-71
2021/10/13 06:47:13;;;;;;;0.20;0.20;;;;;;;;;;10433959;28;20045;-70
2021/10/13 06:52:16;;;;;;;0.20;0.13;;;;;;;;;;10441641;28;20059;-71
2021/10/13 06:57:20;;;;;;;0.10;0.10;;;;;;;;;;10436264;28;20140;-71
2021/10/13 07:02:23;;;;;;;0.20;0.20;;;;;;;;;;10435930;28;20115;-70
2021/10/13 07:07:26;;;;;;;0.20;0.20;;;;;;;;;;10434659;28;20041;-70
2021/10/13 07:12:32;;;;;;;0.10;0.10;;;;;;;;;;10434019;28;20112;-70
2021/10/13 07:17:35;;;;;;;0.13;0.13;;;;;;;;;;10432423;28;20041;-69
2021/10/13 07:22:38;;;;;;;0.20;0.20;;;;;;;;;;10433642;28;20052;-69
2021/10/13 07:27:42;;;;;;;0.10;0.10;;;;;;;;;;10434291;28;20095;-69
2021/10/13 07:32:45;;;;;;;0.10;0.10;;;;;;;;;;10434040;28;20055;-69
2021/10/13 07:37:56;;;;;;;0.20;0.20;;;;;;;;;;10431834;28;20059;-70
2021/10/13 07:43:00;;;;;;;0.20;0.20;;;;;;;;;;10433465;28;20561;-69
2021/10/13 07:48:03;;;;;;;0.63;0.20;;;;;;;;;;10432718;28;20041;-69
2021/10/13 07:53:06;;;;;;;0.10;0.10;;;;;;;;;;10433580;28;20057;-69
2021/10/13 07:58:10;;;;;;;0.28;0.20;;;;;;;;;;10433365;28;20045;-69
2021/10/13 08:03:13;;;;;;;0.10;0.10;;;;;;;;;;10433526;28;20087;-69
2021/10/13 08:08:20;;;;;;;0.20;0.20;;;;;;;;;;10432153;28;20495;-69
2021/10/13 08:13:24;;;;;;;0.10;0.10;;;;;;;;;;10432015;28;20088;-69
2021/10/13 08:18:27;;;;;;;0.20;0.20;;;;;;;;;;10446181;28;20055;-69
2021/10/13 08:23:30;;;;;;;0.10;0.10;;;;;;;;;;10431443;28;20048;-69
2021/10/13 08:28:35;;;;;;;0.10;0.10;;;;;;;;;;10430835;28;20776;-69
2021/10/13 08:33:38;;;;;;;0.17;0.17;;;;;;;;;;10431246;28;20102;-69
2021/10/13 08:38:41;;;;;;;0.20;0.20;;;;;;;;;;10439023;28;20039;-68
2021/10/13 08:43:46;;;;;;;0.10;0.10;;;;;;;;;;10438926;28;20817;-69
2021/10/13 08:48:49;;;;;;;0.10;0.10;;;;;;;;;;10438317;28;20740;-69
2021/10/13 08:53:51;;;;;;;0.10;0.10;;;;;;;;;;10440484;28;20041;-69
2021/10/13 08:58:55;;;;;;;0.10;0.10;;;;;;;;;;10439609;28;20491;-69
2021/10/13 09:03:59;;;;;;;0.10;0.10;;;;;;;;;;10440296;28;20168;-69
2021/10/13 09:09:04;;;;;;;0.10;0.10;;;;;;;;;;10436728;28;20160;-68
2021/10/13 09:14:10;;;;;;;0.10;0.10;;;;;;;;;;10443107;28;20047;-70
2021/10/13 09:19:12;;;;;;;0.00;0.00;;;;;;;;;;10437524;28;20053;-70
2021/10/13 09:24:15;;;;;;;0.30;0.10;;;;;;;;;;10436614;28;20064;-70
2021/10/13 09:29:20;;;;;;;0.10;0.10;;;;;;;;;;10439138;28;20825;-70
2021/10/13 09:34:24;;;;;;;0.10;0.10;;;;;;;;;;10439723;28;20083;-70
2021/10/13 09:39:28;;;;;;;0.10;0.10;;;;;;;;;;10437556;28;20049;-70
2021/10/13 09:44:34;;;;;;;0.10;0.10;;;;;;;;;;10453772;28;20048;-69
2021/10/13 09:49:38;;;;;;;0.10;0.10;;;;;;;;;;10432915;28;20122;-69
2021/10/13 09:54:43;;;;;;;0.10;0.10;;;;;;;;;;10437039;28;20049;-70
2021/10/13 10:00:02;;;;;;;0.10;0.10;;;;;;;;;;10438005;28;20862;-69
2021/10/13 10:05:08;;;;;;;0.10;0.10;;;;;;;;;;10439451;28;20064;-70
2021/10/13 10:10:12;;;;;;;0.10;0.10;;;;;;;;;;10434440;28;20051;-68
2021/10/13 10:15:27;;;;;;;0.17;0.10;;;;;;;;;;10437288;28;20043;-67
2021/10/13 10:20:34;;;;;;;0.00;0.00;;;;;;;;;;10436751;28;20160;-68
2021/10/13 10:25:48;;;;;;;0.10;0.10;;;;;;;;;;10439494;28;20051;-68
2021/10/13 10:31:17;;;;;;;0.10;0.10;;;;;;;;;;10439015;28;20044;-68
2021/10/13 10:36:20;;;;;;;0.10;0.10;;;;;;;;;;10447004;28;20048;-71
2021/10/13 10:41:38;;;;;;;0.10;0.10;;;;;;;;;;10472190;28;20037;-71
2021/10/13 10:47:01;;;;;;;0.10;0.10;;;;;;;;;;10446785;28;20041;-71
2021/10/13 10:52:05;;;;;;;0.10;0.10;;;;;;;;;;10432131;28;20049;-71
2021/10/13 10:57:23;;;;;;;0.10;0.10;;;;;;;;;;10445161;28;20140;-71
2021/10/13 11:02:27;;;;;;;0.10;0.10;;;;;;;;;;10434440;28;20115;-70
2021/10/13 11:07:30;;;;;;;0.10;0.10;;;;;;;;;;10434618;28;20092;-71
2021/10/13 11:12:45;;;;;;;0.10;0.10;;;;;;;;;;10434639;28;20049;-70
2021/10/13 11:17:50;;;;;;;0.10;0.10;;;;;;;;;;10433229;28;21085;-70
2021/10/13 11:22:56;;;;;;;0.10;0.10;;;;;;;;;;10432947;28;20048;-71
2021/10/13 11:27:59;;;;;;;0.10;0.10;;;;;;;;;;10433163;28;20051;-71
2021/10/13 11:33:04;;;;;;;0.10;0.10;;;;;;;;;;10435966;28;20123;-71
2021/10/13 11:38:07;;;;;;;0.52;0.10;;;;;;;;;;10435367;28;20130;-71
2021/10/13 11:43:10;;;;;;;0.10;0.10;;;;;;;;;;10432125;28;20069;-70
2021/10/13 11:48:22;;;;;;;0.10;0.10;;;;;;;;;;10431779;28;20037;-71
2021/10/13 11:53:25;;;;;;;0.10;0.10;;;;;;;;;;10435336;28;20045;-71
2021/10/13 11:58:28;;;;;;;0.00;0.00;;;;;;;;;;10435195;28;20147;-71
2021/10/13 12:03:33;;;;;;;0.10;0.10;;;;;;;;;;10433548;28;20144;-70
2021/10/13 12:08:37;;;;;;;0.10;0.10;;;;;;;;;;10446655;28;20060;-72
2021/10/13 12:13:40;;;;;;;0.10;0.10;;;;;;;;;;10433598;28;20112;-70
2021/10/13 12:19:12;;;;;;;0.10;0.10;;;;;;;;;;10433408;28;20057;-70
2021/10/13 12:24:16;;;;;;;0.10;0.10;;;;;;;;;;10443343;28;20053;-70
2021/10/13 12:29:18;;;;;;;0.00;0.00;;;;;;;;;;10431788;28;20041;-70
2021/10/13 12:34:24;;;;;;;0.10;0.10;;;;;;;;;;10432014;28;20048;-70
2021/10/13 12:39:28;;;;;;;0.00;0.00;;;;;;;;;;10435805;28;20213;-70
2021/10/13 12:44:32;;;;;;;0.10;0.10;;;;;;;;;;10422377;28;20122;-69
2021/10/13 12:49:37;;;;;;;0.10;0.10;;;;;;;;;;10419864;28;20742;-71
2021/10/13 12:54:41;;;;;;;0.10;0.10;;;;;;;;;;10422296;28;20298;-69
2021/10/13 12:59:44;;;;;;;0.00;0.00;;;;;;;;;;10421629;28;20033;-70
2021/10/13 13:04:49;;;;;;;0.00;0.00;;;;;;;;;;10432710;28;20052;-67
2021/10/13 13:09:52;;;;;;;0.00;0.00;;;;;;;;;;10420581;28;20087;-68
2021/10/13 13:14:55;;;;;;;0.10;0.10;;;;;;;;;;10419914;28;20153;-68
2021/10/13 13:19:59;;;;;;;0.03;0.03;;;;;;;;;;10415457;28;20063;-68
2021/10/13 13:25:02;;;;;;;0.10;0.10;;;;;;;;;;10425045;28;20063;-70
2021/10/13 13:30:05;;;;;;;0.00;0.00;;;;;;;;;;10428814;28;20145;-69
2021/10/13 13:35:10;;;;;;;0.10;0.10;;;;;;;;;;10428777;28;20048;-69
2021/10/13 13:40:13;;;;;;;0.10;0.10;;;;;;;;;;10427969;28;20696;-69
2021/10/13 13:45:16;;;;;;;0.10;0.10;;;;;;;;;;10427255;28;20493;-69
2021/10/13 13:50:23;;;;;;;0.10;0.10;;;;;;;;;;10425981;28;20052;-69
2021/10/13 13:55:26;;;;;;;0.10;0.10;;;;;;;;;;10428583;28;20040;-69
2021/10/13 14:00:29;;;;;;;0.00;0.00;;;;;;;;;;10427304;28;20482;-68
2021/10/13 14:05:34;;;;;;;0.00;0.00;;;;;;;;;;10425827;28;20059;-70
2021/10/13 14:10:36;;;;;;;0.00;0.00;;;;;;;;;;10424970;28;20049;-70
2021/10/13 14:15:39;;;;;;;0.00;0.00;;;;;;;;;;10425625;28;20062;-70
2021/10/13 14:20:44;;;;;;;0.00;0.00;;;;;;;;;;10424006;28;20049;-70
2021/10/13 14:25:46;;;;;;;0.10;0.00;;;;;;;;;;10423212;28;20472;-70
2021/10/13 14:30:49;;;;;;;0.00;0.00;;;;;;;;;;10425350;28;20047;-70
2021/10/13 14:36:05;;;;;;;0.10;0.10;;;;;;;;;;10425219;28;20435;-71
2021/10/13 14:41:08;;;;;;;0.10;0.10;;;;;;;;;;10423161;28;20060;-71
2021/10/13 14:46:12;;;;;;;0.10;0.10;;;;;;;;;;10424654;28;20139;-72
2021/10/13 14:51:17;;;;;;;0.00;0.00;;;;;;;;;;10423032;28;21043;-69
2021/10/13 14:56:21;;;;;;;0.00;0.00;;;;;;;;;;10423318;28;20056;-72
2021/10/13 15:01:26;;;;;;;0.10;0.10;;;;;;;;;;10435119;28;20087;-72
2021/10/13 15:06:33;;;;;;;0.10;0.10;;;;;;;;;;10433822;28;20071;-69
2021/10/13 15:11:37;;;;;;;0.10;0.10;;;;;;;;;;10436364;28;20044;-74
2021/10/13 15:16:40;;;;;;;0.03;0.03;;;;;;;;;;10434733;28;20061;-70
2021/10/13 15:21:46;;;;;;;0.00;0.00;;;;;;;;;;10434755;28;20114;-69
2021/10/13 15:26:50;;;;;;;0.00;0.00;;;;;;;;;;10431543;28;20489;-69
2021/10/13 15:31:54;;;;;;;0.00;0.00;;;;;;;;;;10435826;28;20044;-70
2021/10/13 15:36:59;;;;;;;0.05;0.05;;;;;;;;;;10436041;28;20047;-65
2021/10/13 15:42:02;;;;;;;0.00;0.00;;;;;;;;;;10433709;28;21064;-65
2021/10/13 15:47:15;;;;;;;0.10;0.10;;;;;;;;;;10430896;28;20048;-68
2021/10/13 15:52:19;;;;;;;0.00;0.00;;;;;;;;;;10431462;28;20061;-71
2021/10/13 15:57:23;;;;;;;0.00;0.00;;;;;;;;;;10427496;28;20053;-64
2021/10/13 16:02:26;;;;;;;0.00;0.00;;;;;;;;;;10445893;28;20045;-66
2021/10/13 16:07:31;;;;;;;0.00;0.00;;;;;;;;;;10430450;28;20232;-68
2021/10/13 16:12:35;;;;;;;0.10;0.10;;;;;;;;;;10434152;28;20057;-67
2021/10/13 16:17:37;;;;;;;0.10;0.10;;;;;;;;;;10433137;28;20052;-65
2021/10/13 16:22:43;;;;;;;0.10;0.10;;;;;;;;;;10433908;28;20475;-66
2021/10/13 16:27:45;;;;;;;0.10;0.10;;;;;;;;;;10431116;28;20033;-67
2021/10/13 16:32:48;;;;;;;0.10;0.10;;;;;;;;;;10434281;28;20063;-66
2021/10/13 16:37:53;;;;;;;0.10;0.10;;;;;;;;;;10433832;28;20160;-69
2021/10/13 16:42:56;;;;;;;0.10;0.10;;;;;;;;;;10431412;28;20105;-75
2021/10/13 16:47:59;;;;;;;0.15;0.15;;;;;;;;;;10434334;28;20037;-71
2021/10/13 16:53:03;;;;;;;0.10;0.10;;;;;;;;;;10434824;28;20150;-70
2021/10/13 16:58:06;;;;;;;0.10;0.10;;;;;;;;;;10439017;28;20052;-73
2021/10/13 17:03:09;;;;;;;0.10;0.10;;;;;;;;;;10449695;28;20525;-65
2021/10/13 17:08:14;;;;;;;0.17;0.10;;;;;;;;;;10440229;28;20045;-68
2021/10/13 17:13:17;;;;;;;0.10;0.10;;;;;;;;;;10437621;28;20048;-66
2021/10/13 17:18:20;;;;;;;0.10;0.10;;;;;;;;;;10437119;28;20044;-67
2021/10/13 17:23:25;;;;;;;0.10;0.10;;;;;;;;;;10437240;28;20037;-67
2021/10/13 17:28:28;;;;;;;0.10;0.10;;;;;;;;;;10453505;28;20110;-67
2021/10/13 17:33:31;;;;;;;0.20;0.20;;;;;;;;;;10438780;28;20059;-67
2021/10/13 17:38:36;;;;;;;0.10;0.10;;;;;;;;;;10435043;28;20086;-66
2021/10/13 17:43:39;;;;;;;0.10;0.10;;;;;;;;;;10434116;28;20491;-66
2021/10/13 17:48:42;;;;;;;0.20;0.20;;;;;;;;;;10434893;28;20071;-67
2021/10/13 17:54:07;;;;;;;0.10;0.10;;;;;;;;;;10437400;28;20052;-64
2021/10/13 17:59:13;;;;;;;0.10;0.10;;;;;;;;;;10437677;28;20521;-63
2021/10/13 18:04:17;;;;;;;0.15;0.15;;;;;;;;;;10434969;28;20593;-67
2021/10/13 18:09:24;;;;;;;0.20;0.20;;;;;;;;;;10438430;28;20095;-65
2021/10/13 18:14:28;;;;;;;0.10;0.10;;;;;;;;;;10436154;28;20144;-65
2021/10/13 18:19:36;;;;;;;0.13;0.13;;;;;;;;;;10437066;28;20041;-64
2021/10/13 18:24:42;;;;;;;0.20;0.20;;;;;;;;;;10441808;28;20049;-65
2021/10/13 18:29:49;;;;;;;0.20;0.20;;;;;;;;;;10437459;28;20556;-64
2021/10/13 18:34:53;;;;;;;0.57;0.10;;;;;;;;;;10438446;28;20049;-65
2021/10/13 18:40:00;;;;;;;0.20;0.20;;;;;;;;;;10435638;28;20127;-67
2021/10/13 18:45:04;;;;;;;0.10;0.10;;;;;;;;;;10411899;28;20096;-65
2021/10/13 18:50:12;;;;;;;0.10;0.10;;;;;;;;;;10391456;28;20061;-67
2021/10/13 18:55:19;;;;;;;0.10;0.10;;;;;;;;;;10396687;28;20060;-66
2021/10/13 19:00:25;;;;;;;0.10;0.10;;;;;;;;;;10396171;28;20511;-64
2021/10/13 19:05:32;;;;;;;0.10;0.10;;;;;;;;;;10397640;28;20053;-67
2021/10/13 19:10:39;;;;;;;0.10;0.10;;;;;;;;;;10393986;28;20042;-66
2021/10/13 19:15:43;;;;;;;0.10;0.10;;;;;;;;;;10396220;28;20053;-67
2021/10/13 19:20:46;;;;;;;0.10;0.10;;;;;;;;;;10392892;28;20069;-66
2021/10/13 19:25:50;;;;;;;0.13;0.13;;;;;;;;;;10390392;28;20060;-66
2021/10/13 19:30:55;;;;;;;0.10;0.10;;;;;;;;;;10392156;28;20038;-66
2021/10/13 19:35:58;;;;;;;0.20;0.20;;;;;;;;;;10391363;28;20080;-66
2021/10/13 19:41:03;;;;;;;0.10;0.10;;;;;;;;;;10392344;28;20451;-65
2021/10/13 19:46:07;;;;;;;0.10;0.10;;;;;;;;;;10393756;28;20053;-67
2021/10/13 19:51:11;;;;;;;0.10;0.10;;;;;;;;;;10393518;28;20731;-64
2021/10/13 19:56:15;;;;;;;0.10;0.10;;;;;;;;;;10392204;28;20140;-64
2021/10/13 20:01:24;;;;;;;0.10;0.10;;;;;;;;;;10391367;28;20044;-64
2021/10/13 20:06:28;;;;;;;0.10;0.10;;;;;;;;;;10392557;28;20115;-65
2021/10/13 20:11:33;;;;;;;0.17;0.17;;;;;;;;;;10394409;28;20041;-65
2021/10/13 20:16:37;;;;;;;0.17;0.17;;;;;;;;;;10411420;28;20053;-65
2021/10/13 20:21:41;;;;;;;0.20;0.20;;;;;;;;;;10395680;28;20392;-65
2021/10/13 20:26:45;;;;;;;0.10;0.10;;;;;;;;;;10394253;28;20119;-66
2021/10/13 20:31:48;;;;;;;0.10;0.10;;;;;;;;;;10394776;28;20047;-67
2021/10/13 20:36:51;;;;;;;0.10;0.10;;;;;;;;;;10395758;28;20120;-65
2021/10/13 20:41:56;;;;;;;0.10;0.10;;;;;;;;;;10395708;28;20049;-68
2021/10/13 20:46:59;;;;;;;0.10;0.10;;;;;;;;;;10392704;28;20042;-68
2021/10/13 20:52:02;;;;;;;0.10;0.10;;;;;;;;;;10392595;28;20511;-69
2021/10/13 20:57:06;;;;;;;0.00;0.00;;;;;;;;;;10394164;28;20054;-68
2021/10/13 21:02:10;;;;;;;0.10;0.10;;;;;;;;;;10396206;28;20045;-67
2021/10/13 21:07:21;;;;;;;;;;;;;;;;;;10392941;28;20091;-68
2021/10/13 21:12:25;;;;;;;0.10;0.10;;;;;;;;;;10394548;28;20339;-68
2021/10/13 21:17:28;;;;;;;0.20;0.20;;;;;;;;;;10394841;28;20139;-68
2021/10/13 21:22:30;;;;;;;0.10;0.10;;;;;;;;;;10393179;28;20052;-69
2021/10/13 21:27:35;;;;;;;0.10;0.10;;;;;;;;;;10395114;28;20099;-65
2021/10/13 21:32:37;;;;;;;0.10;0.10;;;;;;;;;;10394465;28;20087;-67
2021/10/13 21:37:40;;;;;;;0.10;0.10;;;;;;;;;;10392588;28;20048;-67
2021/10/13 21:42:45;;;;;;;0.10;0.10;;;;;;;;;;10394636;28;20043;-67
2021/10/13 21:47:47;;;;;;;0.10;0.10;;;;;;;;;;10401982;28;20136;-67
2021/10/13 21:52:50;;;;;;;0.15;0.15;;;;;;;;;;10394141;28;20037;-66
2021/10/13 21:57:54;;;;;;;0.10;0.10;;;;;;;;;;10400971;28;20057;-66
2021/10/13 22:02:57;;;;;;;0.20;0.20;;;;;;;;;;10401777;28;20033;-66
2021/10/13 22:08:00;;;;;;;0.10;0.10;;;;;;;;;;10399710;28;20431;-66
2021/10/13 22:13:05;;;;;;;0.10;0.10;;;;;;;;;;10401056;28;20044;-66
2021/10/13 22:18:08;;;;;;;0.10;0.10;;;;;;;;;;10399208;28;20060;-66
2021/10/13 22:23:11;;;;;;;0.10;0.10;;;;;;;;;;10398965;28;20383;-66
2021/10/13 22:28:15;;;;;;;0.10;0.10;;;;;;;;;;10397237;28;20053;-67
2021/10/13 22:33:19;;;;;;;0.10;0.10;;;;;;;;;;10399260;28;20045;-66
2021/10/13 22:38:22;;;;;;;0.10;0.10;;;;;;;;;;10397288;28;20053;-66
2021/10/13 22:43:26;;;;;;;0.10;0.10;;;;;;;;;;10398424;28;20465;-66
2021/10/13 22:48:29;;;;;;;0.10;0.10;;;;;;;;;;10398686;28;20129;-66
2021/10/13 22:53:32;;;;;;;0.10;0.10;;;;;;;;;;10397541;28;20061;-66
2021/10/13 22:58:36;;;;;;;0.10;0.10;;;;;;;;;;10395485;28;20037;-66
2021/10/13 23:03:39;;;;;;;0.10;0.10;;;;;;;;;;10397052;28;20053;-66
2021/10/13 23:08:42;;;;;;;0.10;0.10;;;;;;;;;;10396233;28;20056;-66
2021/10/13 23:13:46;;;;;;;0.10;0.10;;;;;;;;;;10396639;28;20052;-66
2021/10/13 23:18:49;;;;;;;0.10;0.10;;;;;;;;;;10395758;28;20042;-66
2021/10/13 23:23:51;;;;;;;0.10;0.10;;;;;;;;;;10398038;28;20140;-66
2021/10/13 23:28:55;;;;;;;0.10;0.10;;;;;;;;;;10394942;28;20045;-66
2021/10/13 23:33:58;;;;;;;0.20;0.20;;;;;;;;;;10412459;28;20049;-66
2021/10/13 23:39:01;;;;;;;0.10;0.10;;;;;;;;;;10396308;28;20038;-66
2021/10/13 23:44:05;;;;;;;0.10;0.10;;;;;;;;;;10397035;28;20060;-65
2021/10/13 23:49:08;;;;;;;0.10;0.10;;;;;;;;;;10396269;28;20093;-66
2021/10/13 23:54:11;;;;;;;0.20;0.20;;;;;;;;;;10393844;28;20048;-66
2021/10/13 23:59:15;;;;;;;0.10;0.10;;;;;;;;;;10412145;28;20041;-65
